Terminal Aerodrome Forecast
Issued by NWS Bismarck, ND

Home | Current Version | Previous Version | Text Only | Print | Product List | Glossary On
Versions: 1 2 3 4 5 6 7 8 9 10 11 12 13
000
FTUS43 KBIS 262331
TAFISN
TAF
KISN 262331Z 2700/2724 07009KT P6SM SCT250
     FM270700 08004KT P6SM SCT200
     FM271700 09008KT P6SM FEW200=

USA.gov is the U.S. government's official web portal to all federal, state and local government web resources and services.